Main page
METAR-TAF:

METAR-TAF

Airports :

Marechal Rondon International Airport

Cuiabá, Mato Grosso, Brazil

latitude: 15-39S, longitude: 056-06W, elevation: 187 m

Current weather observation

The report was made 46 minutes ago, at 07:00 UTC
Wind 8 kt from the Northwest
Temperature 28°C
Humidity 84%
Pressure 1012 hPa
Visibility 10 km or more
no clouds below 1500 m and no cumulonimbus

METAR: SBCY 200700Z 32008KT CAVOK 28/25 Q1012

Time: 03:46 (07:46 UTC)

Forecast

The report was made 3 hours and 46 minutes ago, at 04:00 UTC
Forecast valid from 20 at 06 UTC to 21 at 06 UTC
Wind 5 kt from the North/Northwest
Visibility 10 km or more
no clouds below 1500 m and no cumulonimbus
Becoming
from 20 at 15 UTC to 20 at 16 UTC
Scattered clouds at a height of 2000 ft
Becoming
from 20 at 23 UTC to 21 at 01 UTC
Wind 5 kt from the Southeast
Visibility 10 km or more
no clouds below 1500 m and no cumulonimbus

TAF: SBCY 200400Z 2006/2106 34005KT CAVOK TN25/2008Z TX36/2018Z BECMG 2015/2016 SCT020 BECMG 2023/2101 14005KT CAVOK RMK PEM

Weather observations and forecasts of more than 4000 airports (METAR and TAF reports).

The available stations are represented by yellow and red dots on the map.

Hover mouse over dot to see the name of the station.

Then click to see weather observations and forecasts.

To change the map : click on the green buttons with a black cross to zoom in, on the green button with a dash to zoom out, or on the green arrows for adjacent maps.


METAR-TAF: